Time;durP1;ratioP1;P1;durP2;ratioP2;P2;SDS_P1;SDS_P2;PMS_P1;PMS_P2;Temp;Humidity;BMP_temperature;BMP_pressure;BME280_temperature;BME280_humidity;BME280_pressure;Samples;Min_cycle;Max_cycle;Signal;HPM_P1;HPM_P2
2021/10/10 00:01:34;;;;;;;12.87;11.67;;;;;;;;;;5052989;28;20716;-62
2021/10/10 00:04:00;;;;;;;11.90;10.70;;;;;;;;;;5053464;28;20304;-62
2021/10/10 00:06:25;;;;;;;12.80;11.60;;;;;;;;;;5052919;28;20303;-62
2021/10/10 00:08:50;;;;;;;13.50;12.10;;;;;;;;;;5053566;28;20216;-62
2021/10/10 00:11:16;;;;;;;15.63;12.30;;;;;;;;;;5053096;28;20221;-62
2021/10/10 00:13:41;;;;;;;12.60;11.30;;;;;;;;;;5055405;28;20224;-62
2021/10/10 00:16:06;;;;;;;13.40;11.43;;;;;;;;;;5057223;28;20209;-62
2021/10/10 00:18:31;;;;;;;13.87;11.90;;;;;;;;;;5056621;28;20267;-62
2021/10/10 00:20:57;;;;;;;12.43;11.20;;;;;;;;;;5056968;28;20213;-62
2021/10/10 00:23:22;;;;;;;12.70;10.57;;;;;;;;;;5055757;28;20691;-61
2021/10/10 00:25:47;;;;;;;12.03;10.77;;;;;;;;;;5057129;28;20216;-62
2021/10/10 00:28:12;;;;;;;13.20;11.80;;;;;;;;;;5056831;28;20300;-62
2021/10/10 00:30:38;;;;;;;11.80;10.57;;;;;;;;;;5056253;28;20550;-62
2021/10/10 00:33:03;;;;;;;11.47;10.27;;;;;;;;;;5056816;28;20295;-62
2021/10/10 00:35:30;;;;;;;15.50;11.93;;;;;;;;;;5056267;28;20660;-63
2021/10/10 00:37:55;;;;;;;12.07;10.77;;;;;;;;;;5055543;28;20300;-61
2021/10/10 00:40:20;;;;;;;12.67;11.47;;;;;;;;;;5056357;28;20907;-61
2021/10/10 00:42:45;;;;;;;12.77;11.50;;;;;;;;;;5056614;28;20251;-63
2021/10/10 00:45:11;;;;;;;15.90;12.73;;;;;;;;;;5056529;28;20217;-63
2021/10/10 00:47:37;;;;;;;17.07;11.20;;;;;;;;;;5056114;28;20274;-62
2021/10/10 00:50:03;;;;;;;12.00;10.80;;;;;;;;;;5056487;28;20296;-62
2021/10/10 00:52:29;;;;;;;12.93;11.53;;;;;;;;;;5056235;28;20469;-62
2021/10/10 00:54:55;;;;;;;13.37;12.07;;;;;;;;;;5056572;28;20452;-63
2021/10/10 00:57:23;;;;;;;14.17;11.63;;;;;;;;;;5055008;28;20267;-61
2021/10/10 00:59:49;;;;;;;14.00;12.50;;;;;;;;;;5056100;28;20443;-62
2021/10/10 01:02:15;;;;;;;14.97;13.20;;;;;;;;;;5055465;28;20468;-62
2021/10/10 01:04:41;;;;;;;20.13;12.60;;;;;;;;;;5055680;28;20450;-62
2021/10/10 01:07:07;;;;;;;14.50;11.33;;;;;;;;;;5056173;28;20535;-62
2021/10/10 01:09:35;;;;;;;14.40;12.43;;;;;;;;;;5055857;28;20414;-62
2021/10/10 01:12:00;;;;;;;13.23;11.70;;;;;;;;;;5055769;28;20839;-62
2021/10/10 01:14:26;;;;;;;12.90;11.60;;;;;;;;;;5054686;28;20473;-62
2021/10/10 01:16:51;;;;;;;13.90;11.80;;;;;;;;;;5056008;28;20216;-62
2021/10/10 01:19:17;;;;;;;12.60;11.27;;;;;;;;;;5055957;28;20220;-62
2021/10/10 01:21:42;;;;;;;14.37;12.90;;;;;;;;;;5055522;28;20255;-62
2021/10/10 01:24:07;;;;;;;15.00;12.30;;;;;;;;;;5055307;28;20236;-62
2021/10/10 01:26:33;;;;;;;14.43;12.20;;;;;;;;;;5055356;28;20542;-62
2021/10/10 01:28:58;;;;;;;14.20;12.37;;;;;;;;;;5055855;28;20213;-62
2021/10/10 01:31:23;;;;;;;12.23;11.00;;;;;;;;;;5055335;28;20221;-62
2021/10/10 01:33:49;;;;;;;13.30;11.57;;;;;;;;;;5055708;28;20600;-62
2021/10/10 01:36:15;;;;;;;13.63;11.63;;;;;;;;;;5055513;28;20213;-62
2021/10/10 01:38:41;;;;;;;16.00;11.70;;;;;;;;;;5055392;28;20274;-62
2021/10/10 01:41:07;;;;;;;13.23;11.90;;;;;;;;;;5054350;28;20870;-62
2021/10/10 01:43:33;;;;;;;15.10;13.03;;;;;;;;;;5055018;28;20463;-62
2021/10/10 01:45:58;;;;;;;14.40;12.90;;;;;;;;;;5055380;28;20897;-63
2021/10/10 01:48:23;;;;;;;13.70;12.20;;;;;;;;;;5055245;28;20220;-62
2021/10/10 01:50:50;;;;;;;15.50;12.63;;;;;;;;;;5055046;28;20366;-62
2021/10/10 01:53:15;;;;;;;15.20;12.80;;;;;;;;;;5055395;28;20224;-63
2021/10/10 01:55:40;;;;;;;15.80;12.40;;;;;;;;;;5055031;28;20460;-62
2021/10/10 01:58:06;;;;;;;15.13;12.10;;;;;;;;;;5055232;28;20220;-62
2021/10/10 02:00:33;;;;;;;14.63;13.10;;;;;;;;;;5054717;28;20227;-62
2021/10/10 02:02:58;;;;;;;14.50;12.27;;;;;;;;;;5055011;28;20504;-62
2021/10/10 02:05:23;;;;;;;14.97;12.40;;;;;;;;;;5054455;28;20466;-61
2021/10/10 02:07:49;;;;;;;14.80;13.23;;;;;;;;;;5054860;28;20213;-62
2021/10/10 02:10:14;;;;;;;16.90;12.93;;;;;;;;;;5054730;28;20228;-62
2021/10/10 02:12:39;;;;;;;15.30;12.40;;;;;;;;;;5054397;28;20229;-62
2021/10/10 02:15:06;;;;;;;15.10;13.33;;;;;;;;;;5054898;28;20217;-62
2021/10/10 02:17:31;;;;;;;15.87;13.53;;;;;;;;;;5053214;28;20245;-62
2021/10/10 02:19:56;;;;;;;18.30;13.60;;;;;;;;;;5054783;28;20510;-62
2021/10/10 02:22:22;;;;;;;16.80;13.77;;;;;;;;;;5054721;28;20234;-63
2021/10/10 02:24:47;;;;;;;13.67;12.33;;;;;;;;;;5054509;28;20221;-63
2021/10/10 02:27:12;;;;;;;15.20;13.73;;;;;;;;;;5054715;28;20284;-62
2021/10/10 02:29:38;;;;;;;13.97;12.40;;;;;;;;;;5054213;28;20225;-62
2021/10/10 02:32:03;;;;;;;16.07;14.40;;;;;;;;;;5054619;28;20375;-62
2021/10/10 02:34:28;;;;;;;16.07;14.37;;;;;;;;;;5054308;28;20550;-62
2021/10/10 02:36:54;;;;;;;16.07;14.17;;;;;;;;;;5053504;28;20217;-62
2021/10/10 02:39:19;;;;;;;13.60;12.03;;;;;;;;;;5054558;28;20283;-63
2021/10/10 02:41:44;;;;;;;17.03;13.80;;;;;;;;;;5053981;28;20232;-62
2021/10/10 02:44:11;;;;;;;15.13;13.63;;;;;;;;;;5054287;28;20217;-61
2021/10/10 02:46:36;;;;;;;15.13;13.53;;;;;;;;;;5053882;28;20551;-62
2021/10/10 02:49:02;;;;;;;16.67;13.83;;;;;;;;;;5054470;28;20470;-62
2021/10/10 02:51:29;;;;;;;16.10;13.90;;;;;;;;;;5053632;28;20368;-61
2021/10/10 02:53:54;;;;;;;16.67;13.77;;;;;;;;;;5054113;28;20934;-62
2021/10/10 02:56:19;;;;;;;14.53;13.00;;;;;;;;;;5054156;28;20460;-63
2021/10/10 02:58:44;;;;;;;14.43;12.90;;;;;;;;;;5052870;28;20640;-62
2021/10/10 03:01:10;;;;;;;15.03;12.97;;;;;;;;;;5052828;28;20225;-62
2021/10/10 03:03:35;;;;;;;14.70;13.20;;;;;;;;;;5053897;28;20629;-63
2021/10/10 03:06:01;;;;;;;20.73;14.77;;;;;;;;;;5054174;28;20217;-62
2021/10/10 03:08:26;;;;;;;12.13;10.83;;;;;;;;;;5053932;28;20220;-62
2021/10/10 03:10:52;;;;;;;15.37;13.57;;;;;;;;;;5053285;28;20320;-62
2021/10/10 03:13:17;;;;;;;15.70;14.13;;;;;;;;;;5054089;28;20553;-62
2021/10/10 03:15:42;;;;;;;17.80;14.00;;;;;;;;;;5053477;28;20665;-62
2021/10/10 03:18:07;;;;;;;15.37;13.77;;;;;;;;;;5053985;28;20213;-62
2021/10/10 03:20:33;;;;;;;14.97;13.40;;;;;;;;;;5053446;28;20712;-62
2021/10/10 03:22:58;;;;;;;15.23;13.63;;;;;;;;;;5053991;28;20225;-62
2021/10/10 03:25:23;;;;;;;16.33;14.60;;;;;;;;;;5053744;28;20252;-62
2021/10/10 03:27:49;;;;;;;17.90;14.47;;;;;;;;;;5053387;28;20213;-62
2021/10/10 03:30:14;;;;;;;18.47;14.47;;;;;;;;;;5053687;28;20224;-63
2021/10/10 03:32:40;;;;;;;16.17;13.90;;;;;;;;;;5053400;28;20225;-62
2021/10/10 03:35:06;;;;;;;18.00;14.30;;;;;;;;;;5053938;28;20228;-62
2021/10/10 03:37:33;;;;;;;19.07;15.33;;;;;;;;;;5053425;28;20304;-62
2021/10/10 03:39:59;;;;;;;16.57;13.90;;;;;;;;;;5053586;28;20472;-62
2021/10/10 03:42:24;;;;;;;16.60;13.57;;;;;;;;;;5053504;28;20464;-62
2021/10/10 03:44:49;;;;;;;16.80;14.57;;;;;;;;;;5053226;28;20296;-61
2021/10/10 03:47:15;;;;;;;16.70;13.40;;;;;;;;;;5054019;28;20209;-62
2021/10/10 03:49:41;;;;;;;16.83;14.97;;;;;;;;;;5057304;28;20232;-62
2021/10/10 03:52:07;;;;;;;15.90;13.70;;;;;;;;;;5057493;28;20241;-62
2021/10/10 03:57:20;;;;;;;16.50;14.77;;;;;;;;;;5057689;28;20266;-62
2021/10/10 03:59:49;;;;;;;18.83;13.70;;;;;;;;;;5057141;28;20464;-62
2021/10/10 04:02:14;;;;;;;19.60;16.27;;;;;;;;;;5057275;28;20489;-63
2021/10/10 04:04:39;;;;;;;16.30;14.60;;;;;;;;;;5056697;28;20558;-62
2021/10/10 04:07:05;;;;;;;15.03;13.40;;;;;;;;;;5057134;28;20642;-61
2021/10/10 04:09:30;;;;;;;16.60;14.40;;;;;;;;;;5057016;28;20225;-62
2021/10/10 04:11:55;;;;;;;18.67;15.00;;;;;;;;;;5056573;28;20740;-62
2021/10/10 04:14:20;;;;;;;18.33;16.33;;;;;;;;;;5057138;28;20213;-63
2021/10/10 04:16:46;;;;;;;16.53;14.40;;;;;;;;;;5056826;28;20308;-62
2021/10/10 04:19:11;;;;;;;16.60;14.43;;;;;;;;;;5057179;28;20217;-63
2021/10/10 04:21:36;;;;;;;18.07;14.97;;;;;;;;;;5055579;28;20323;-62
2021/10/10 04:24:01;;;;;;;18.00;14.93;;;;;;;;;;5057191;28;20224;-62
2021/10/10 04:26:27;;;;;;;17.23;14.13;;;;;;;;;;5056900;28;20304;-62
2021/10/10 04:28:52;;;;;;;17.80;15.13;;;;;;;;;;5056548;28;20221;-62
2021/10/10 04:31:18;;;;;;;16.97;15.20;;;;;;;;;;5056682;28;20628;-62
2021/10/10 04:33:43;;;;;;;16.17;14.47;;;;;;;;;;5056485;28;20254;-62
2021/10/10 04:36:08;;;;;;;15.90;14.20;;;;;;;;;;5056817;28;20267;-62
2021/10/10 04:38:33;;;;;;;19.80;14.20;;;;;;;;;;5056430;28;20751;-63
2021/10/10 04:40:59;;;;;;;19.20;15.30;;;;;;;;;;5056590;28;20270;-62
2021/10/10 04:43:24;;;;;;;16.27;14.50;;;;;;;;;;5056621;28;20672;-62
2021/10/10 04:45:49;;;;;;;17.33;14.70;;;;;;;;;;5056232;28;20327;-61
2021/10/10 04:48:15;;;;;;;18.20;14.73;;;;;;;;;;5056629;28;20753;-62
2021/10/10 04:50:40;;;;;;;20.00;15.87;;;;;;;;;;5056071;28;20221;-61
2021/10/10 04:53:05;;;;;;;21.20;16.27;;;;;;;;;;5056345;28;20232;-62
2021/10/10 04:55:30;;;;;;;17.57;15.17;;;;;;;;;;5056348;28;20300;-62
2021/10/10 04:57:56;;;;;;;20.60;14.73;;;;;;;;;;5055832;28;20540;-62
2021/10/10 05:00:21;;;;;;;17.33;15.40;;;;;;;;;;5055293;28;20331;-62
2021/10/10 05:02:46;;;;;;;22.93;16.23;;;;;;;;;;5055851;28;20244;-62
2021/10/10 05:05:11;;;;;;;19.43;15.13;;;;;;;;;;5056095;28;20245;-62
2021/10/10 05:07:37;;;;;;;17.47;15.43;;;;;;;;;;5055705;28;20302;-61
2021/10/10 05:10:02;;;;;;;18.57;15.50;;;;;;;;;;5056109;28;20241;-62
2021/10/10 05:12:27;;;;;;;16.80;14.30;;;;;;;;;;5055887;28;20672;-62
2021/10/10 05:14:52;;;;;;;22.17;15.07;;;;;;;;;;5055502;28;20230;-61
2021/10/10 05:17:18;;;;;;;18.17;15.70;;;;;;;;;;5056108;28;20213;-62
2021/10/10 05:19:43;;;;;;;20.50;16.37;;;;;;;;;;5055281;28;20355;-62
2021/10/10 05:22:08;;;;;;;17.90;15.87;;;;;;;;;;5055697;28;20217;-63
2021/10/10 05:24:33;;;;;;;22.20;17.27;;;;;;;;;;5056334;28;20664;-64
2021/10/10 05:27:00;;;;;;;19.40;15.90;;;;;;;;;;5054743;28;20239;-62
2021/10/10 05:29:25;;;;;;;23.70;17.60;;;;;;;;;;5053871;28;20221;-62
2021/10/10 05:31:51;;;;;;;21.20;18.00;;;;;;;;;;5054531;28;20966;-62
2021/10/10 05:34:16;;;;;;;21.10;16.77;;;;;;;;;;5061740;28;20221;-63
2021/10/10 05:36:41;;;;;;;18.30;16.10;;;;;;;;;;5066014;28;20270;-63
2021/10/10 05:39:06;;;;;;;18.90;15.67;;;;;;;;;;5068691;28;20372;-63
2021/10/10 05:41:32;;;;;;;19.23;14.60;;;;;;;;;;5064432;28;20224;-61
2021/10/10 05:43:57;;;;;;;19.43;16.60;;;;;;;;;;5061547;28;20303;-62
2021/10/10 05:46:22;;;;;;;17.97;15.27;;;;;;;;;;5066045;28;20248;-63
2021/10/10 05:48:47;;;;;;;22.57;16.30;;;;;;;;;;5068094;28;20306;-63
2021/10/10 05:51:14;;;;;;;21.13;15.83;;;;;;;;;;5064230;28;20644;-63
2021/10/10 05:53:40;;;;;;;19.57;17.00;;;;;;;;;;5061055;28;20609;-62
2021/10/10 05:56:05;;;;;;;21.33;18.27;;;;;;;;;;5066227;28;20472;-62
2021/10/10 05:58:33;;;;;;;18.00;16.20;;;;;;;;;;5068653;28;20474;-63
2021/10/10 06:00:59;;;;;;;21.03;18.07;;;;;;;;;;5063654;28;20289;-63
2021/10/10 06:03:24;;;;;;;19.70;17.70;;;;;;;;;;5061282;28;20460;-62
2021/10/10 06:05:49;;;;;;;20.50;16.97;;;;;;;;;;5065486;28;20221;-63
2021/10/10 06:08:15;;;;;;;21.67;17.40;;;;;;;;;;5068166;28;20303;-63
2021/10/10 06:10:42;;;;;;;20.87;16.10;;;;;;;;;;5062905;28;20585;-63
2021/10/10 06:13:07;;;;;;;17.63;15.50;;;;;;;;;;5061053;28;20232;-64
2021/10/10 06:15:33;;;;;;;18.93;16.70;;;;;;;;;;5066101;28;20474;-64
2021/10/10 06:17:58;;;;;;;20.97;16.43;;;;;;;;;;5050146;28;20231;-63
2021/10/10 06:20:23;;;;;;;20.23;16.20;;;;;;;;;;5063254;28;20224;-63
2021/10/10 06:22:49;;;;;;;18.00;16.10;;;;;;;;;;5060625;28;20222;-63
2021/10/10 06:25:15;;;;;;;18.27;16.43;;;;;;;;;;5066102;28;20299;-64
2021/10/10 06:27:40;;;;;;;20.33;17.73;;;;;;;;;;5067556;28;20656;-63
2021/10/10 06:30:06;;;;;;;19.40;16.50;;;;;;;;;;5050108;28;20448;-64
2021/10/10 06:32:31;;;;;;;18.70;15.93;;;;;;;;;;5064508;28;20229;-63
2021/10/10 06:34:57;;;;;;;19.30;16.50;;;;;;;;;;5064274;28;20221;-63
2021/10/10 06:37:22;;;;;;;18.47;16.53;;;;;;;;;;5058239;28;20221;-63
2021/10/10 06:39:47;;;;;;;19.10;15.77;;;;;;;;;;5063748;28;20254;-63
2021/10/10 06:42:12;;;;;;;22.93;18.03;;;;;;;;;;5060971;28;20516;-63
2021/10/10 06:44:38;;;;;;;19.33;16.50;;;;;;;;;;5064406;28;20228;-63
2021/10/10 06:47:03;;;;;;;20.43;18.23;;;;;;;;;;5067115;28;20510;-64
2021/10/10 06:49:29;;;;;;;22.13;17.53;;;;;;;;;;5063790;28;20279;-63
2021/10/10 06:51:54;;;;;;;23.93;16.87;;;;;;;;;;5059786;28;20318;-63
2021/10/10 06:54:20;;;;;;;18.50;15.40;;;;;;;;;;5064596;28;20228;-63
2021/10/10 06:56:45;;;;;;;19.43;16.93;;;;;;;;;;5066986;28;20225;-64
2021/10/10 06:59:11;;;;;;;28.43;19.77;;;;;;;;;;5063395;28;20460;-64
2021/10/10 07:01:36;;;;;;;23.10;18.50;;;;;;;;;;5060307;28;20226;-63
2021/10/10 07:04:01;;;;;;;20.13;16.60;;;;;;;;;;5063742;28;20215;-63
2021/10/10 07:06:27;;;;;;;24.13;17.77;;;;;;;;;;5067466;28;20220;-63
2021/10/10 07:08:53;;;;;;;21.40;16.27;;;;;;;;;;5062905;28;20232;-63
2021/10/10 07:11:22;;;;;;;20.57;18.00;;;;;;;;;;5059949;28;20245;-63
2021/10/10 07:13:48;;;;;;;20.60;18.33;;;;;;;;;;5063819;28;20715;-63
2021/10/10 07:16:13;;;;;;;19.07;17.07;;;;;;;;;;5067177;28;20466;-63
2021/10/10 07:18:48;;;;;;;20.33;18.03;;;;;;;;;;5062103;28;20217;-62
2021/10/10 07:26:35;;;;;;;20.60;17.90;;;;;;;;;;5049585;28;20528;-63
2021/10/10 07:29:02;;;;;;;22.97;19.77;;;;;;;;;;5059855;28;20464;-63
2021/10/10 07:31:27;;;;;;;25.27;19.30;;;;;;;;;;5059819;28;20621;-63
2021/10/10 07:33:53;;;;;;;21.50;19.00;;;;;;;;;;5061479;28;20543;-62
2021/10/10 07:36:18;;;;;;;21.53;17.47;;;;;;;;;;5066889;28;20247;-64
2021/10/10 07:38:43;;;;;;;23.30;18.00;;;;;;;;;;5057273;28;20442;-64
2021/10/10 07:41:09;;;;;;;19.87;17.20;;;;;;;;;;5065485;28;20259;-65
2021/10/10 07:43:34;;;;;;;20.97;18.40;;;;;;;;;;5064633;28;20634;-63
2021/10/10 07:46:06;;;;;;;17.73;15.23;;;;;;;;;;5059742;28;20227;-64
2021/10/10 07:48:33;;;;;;;24.07;19.90;;;;;;;;;;5061852;28;20298;-63
2021/10/10 07:50:58;;;;;;;23.63;18.90;;;;;;;;;;5065183;28;20468;-63
2021/10/10 07:53:24;;;;;;;22.30;18.40;;;;;;;;;;5065071;28;20466;-63
2021/10/10 07:55:49;;;;;;;21.07;16.90;;;;;;;;;;5058821;28;20240;-63
2021/10/10 07:58:14;;;;;;;22.10;17.63;;;;;;;;;;5061483;28;20229;-62
2021/10/10 08:00:39;;;;;;;21.03;18.53;;;;;;;;;;5066417;28;20236;-65
2021/10/10 08:03:05;;;;;;;20.00;17.10;;;;;;;;;;5063579;28;20224;-64
2021/10/10 08:05:38;;;;;;;21.60;18.10;;;;;;;;;;5059924;28;20212;-64
2021/10/10 08:08:03;;;;;;;20.17;17.60;;;;;;;;;;5061040;28;20285;-65
2021/10/10 08:10:28;;;;;;;19.73;15.90;;;;;;;;;;5066431;28;20476;-63
2021/10/10 08:12:54;;;;;;;21.30;16.17;;;;;;;;;;5064257;28;20235;-62
2021/10/10 08:15:19;;;;;;;21.30;16.40;;;;;;;;;;5059510;28;20366;-62
2021/10/10 08:17:44;;;;;;;20.30;16.50;;;;;;;;;;5062189;28;20655;-63
2021/10/10 08:20:10;;;;;;;19.43;17.43;;;;;;;;;;5065773;28;20221;-63
2021/10/10 08:22:37;;;;;;;19.60;16.13;;;;;;;;;;5064163;28;20669;-63
2021/10/10 08:25:07;;;;;;;21.80;16.57;;;;;;;;;;5058936;28;20459;-64
2021/10/10 08:27:33;;;;;;;20.00;16.30;;;;;;;;;;5061264;28;20919;-64
2021/10/10 08:29:58;;;;;;;19.53;17.63;;;;;;;;;;5064322;28;20470;-63
2021/10/10 08:32:23;;;;;;;18.90;16.27;;;;;;;;;;5065624;28;20478;-64
2021/10/10 08:34:49;;;;;;;18.53;16.40;;;;;;;;;;5060583;28;20228;-63
2021/10/10 08:37:14;;;;;;;18.07;15.40;;;;;;;;;;5066882;28;20248;-63
2021/10/10 08:39:39;;;;;;;19.73;16.67;;;;;;;;;;5062718;28;20342;-63
2021/10/10 08:42:08;;;;;;;18.20;15.60;;;;;;;;;;5064001;28;20228;-63
2021/10/10 08:44:36;;;;;;;17.50;14.93;;;;;;;;;;5068873;28;20219;-63
2021/10/10 08:47:05;;;;;;;17.43;15.30;;;;;;;;;;5068010;28;20456;-63
2021/10/10 08:49:30;;;;;;;20.67;16.20;;;;;;;;;;5061583;28;20545;-63
2021/10/10 08:51:55;;;;;;;16.40;14.60;;;;;;;;;;5062699;28;20998;-62
2021/10/10 08:54:21;;;;;;;16.80;13.80;;;;;;;;;;5069458;28;20702;-63
2021/10/10 08:56:46;;;;;;;16.13;14.43;;;;;;;;;;5069055;28;20232;-63
2021/10/10 08:59:12;;;;;;;13.50;12.20;;;;;;;;;;5062148;28;20231;-62
2021/10/10 09:01:38;;;;;;;17.60;14.00;;;;;;;;;;5062291;28;20237;-63
2021/10/10 09:04:04;;;;;;;15.47;13.83;;;;;;;;;;5068964;28;20230;-62
2021/10/10 09:06:31;;;;;;;15.43;13.33;;;;;;;;;;5068308;28;20463;-62
2021/10/10 09:09:29;;;;;;;15.83;14.20;;;;;;;;;;5061946;28;20224;-62
2021/10/10 09:12:06;;;;;;;15.40;13.23;;;;;;;;;;5061734;28;20932;-61
2021/10/10 09:14:52;;;;;;;14.03;12.63;;;;;;;;;;5064575;28;20463;-63
2021/10/10 09:17:19;;;;;;;19.00;13.50;;;;;;;;;;5050437;28;20447;-63
2021/10/10 09:19:56;;;;;;;16.33;13.00;;;;;;;;;;5062172;28;20459;-63
2021/10/10 09:22:22;;;;;;;14.63;13.07;;;;;;;;;;5065324;28;20468;-62
2021/10/10 09:24:52;;;;;;;14.23;11.50;;;;;;;;;;5068986;28;20479;-62
2021/10/10 09:27:19;;;;;;;16.00;12.60;;;;;;;;;;5064750;28;20464;-63
2021/10/10 09:29:47;;;;;;;14.13;12.17;;;;;;;;;;5059570;28;20479;-63
2021/10/10 09:32:17;;;;;;;13.53;11.90;;;;;;;;;;5066591;28;20503;-62
2021/10/10 09:34:43;;;;;;;13.60;11.80;;;;;;;;;;5062169;28;20458;-63
2021/10/10 09:37:32;;;;;;;13.77;12.37;;;;;;;;;;5065235;28;20466;-63
2021/10/10 09:40:24;;;;;;;13.40;12.00;;;;;;;;;;5051875;28;20255;-62
2021/10/10 09:42:51;;;;;;;13.30;10.60;;;;;;;;;;5061202;28;20454;-63
2021/10/10 09:45:23;;;;;;;12.87;11.40;;;;;;;;;;5063222;28;20467;-63
2021/10/10 09:47:52;;;;;;;13.07;11.60;;;;;;;;;;5068142;28;20475;-62
2021/10/10 09:50:17;;;;;;;13.20;10.07;;;;;;;;;;5068080;28;20473;-63
2021/10/10 09:52:42;;;;;;;11.87;10.50;;;;;;;;;;5059796;28;20551;-63
2021/10/10 09:55:10;;;;;;;12.50;11.20;;;;;;;;;;5062768;28;20546;-63
2021/10/10 09:57:45;;;;;;;25.13;10.97;;;;;;;;;;5068576;28;20302;-63
2021/10/10 10:00:21;;;;;;;11.10;10.00;;;;;;;;;;5067958;28;20481;-62
2021/10/10 10:02:48;;;;;;;17.03;10.30;;;;;;;;;;5063045;28;20933;-63
2021/10/10 10:05:24;;;;;;;11.80;9.53;;;;;;;;;;5061367;28;20455;-63
2021/10/10 10:07:50;;;;;;;11.73;9.27;;;;;;;;;;5065001;28;20473;-63
2021/10/10 10:10:16;;;;;;;10.80;9.17;;;;;;;;;;5067621;28;20474;-63
2021/10/10 10:12:41;;;;;;;10.93;9.90;;;;;;;;;;5064260;28;20951;-63
2021/10/10 10:15:07;;;;;;;13.13;10.40;;;;;;;;;;5060816;28;20315;-63
2021/10/10 10:17:32;;;;;;;9.90;8.90;;;;;;;;;;5065201;28;20558;-63
2021/10/10 10:20:00;;;;;;;9.37;8.47;;;;;;;;;;5067561;28;20236;-63
2021/10/10 10:22:27;;;;;;;10.47;9.37;;;;;;;;;;5064275;28;20571;-63
2021/10/10 10:24:52;;;;;;;8.87;7.97;;;;;;;;;;5059326;28;20528;-63
2021/10/10 10:27:17;;;;;;;10.17;9.17;;;;;;;;;;5063396;28;20471;-63
2021/10/10 10:29:46;;;;;;;13.57;8.70;;;;;;;;;;5066729;28;20223;-63
2021/10/10 10:32:14;;;;;;;10.50;8.13;;;;;;;;;;5064089;28;20228;-64
2021/10/10 10:34:55;;;;;;;11.93;10.50;;;;;;;;;;5059813;28;20523;-62
2021/10/10 10:37:20;;;;;;;29.90;17.63;;;;;;;;;;5063578;28;20476;-63
2021/10/10 10:39:49;;;;;;;18.33;11.33;;;;;;;;;;5061149;28;20937;-62
2021/10/10 10:42:23;;;;;;;10.90;8.80;;;;;;;;;;5059302;28;20253;-63
2021/10/10 10:44:50;;;;;;;16.13;12.53;;;;;;;;;;5065406;28;20520;-63
2021/10/10 10:47:20;;;;;;;15.53;10.23;;;;;;;;;;5067173;28;20466;-64
2021/10/10 10:49:52;;;;;;;11.07;9.60;;;;;;;;;;5063058;28;20459;-63
2021/10/10 10:52:33;;;;;;;8.53;7.63;;;;;;;;;;5060283;28;20528;-63
2021/10/10 10:55:19;;;;;;;9.93;8.60;;;;;;;;;;5062071;28;20942;-61
2021/10/10 10:57:58;;;;;;;19.40;12.00;;;;;;;;;;5049177;28;20469;-61
2021/10/10 11:00:28;;;;;;;9.17;8.27;;;;;;;;;;5060454;28;20523;-61
2021/10/10 11:02:59;;;;;;;11.53;10.40;;;;;;;;;;5063644;28;20514;-61
2021/10/10 11:05:41;;;;;;;15.40;12.03;;;;;;;;;;5066990;28;20561;-60
2021/10/10 11:08:36;;;;;;;11.53;10.33;;;;;;;;;;5066887;28;20475;-61
2021/10/10 11:11:04;;;;;;;13.67;12.13;;;;;;;;;;5054236;28;20463;-61
2021/10/10 11:13:35;;;;;;;10.30;9.20;;;;;;;;;;5060035;28;20905;-61
2021/10/10 11:16:13;;;;;;;20.27;15.83;;;;;;;;;;5062226;28;20524;-60
2021/10/10 11:18:50;;;;;;;12.70;11.37;;;;;;;;;;5066995;28;20455;-60
2021/10/10 11:21:18;;;;;;;18.70;14.93;;;;;;;;;;5065897;28;20511;-60
2021/10/10 11:23:47;;;;;;;14.47;11.20;;;;;;;;;;5061939;28;20466;-60
2021/10/10 11:26:13;;;;;;;12.47;10.37;;;;;;;;;;5059532;28;20892;-60
2021/10/10 11:28:47;;;;;;;12.30;9.83;;;;;;;;;;5064928;28;20467;-61
2021/10/10 11:31:13;;;;;;;11.30;10.10;;;;;;;;;;5054823;28;20664;-60
2021/10/10 11:33:44;;;;;;;19.63;13.53;;;;;;;;;;5063941;28;20514;-60
2021/10/10 11:36:10;;;;;;;12.73;9.10;;;;;;;;;;5066413;28;20460;-60
2021/10/10 11:38:50;;;;;;;8.90;8.00;;;;;;;;;;5057452;28;20460;-61
2021/10/10 11:41:15;;;;;;;11.27;8.90;;;;;;;;;;5066353;28;20235;-60
2021/10/10 11:43:52;;;;;;;11.23;7.73;;;;;;;;;;5065637;28;20466;-60
2021/10/10 11:46:20;;;;;;;10.27;9.27;;;;;;;;;;5046287;28;20238;-60
2021/10/10 11:48:48;;;;;;;10.47;8.23;;;;;;;;;;5059856;28;20474;-60
2021/10/10 11:51:36;;;;;;;9.07;8.17;;;;;;;;;;5065758;28;20582;-60
2021/10/10 11:54:06;;;;;;;10.20;7.90;;;;;;;;;;5066176;28;20456;-60
2021/10/10 11:56:31;;;;;;;7.07;6.13;;;;;;;;;;5064176;28;20496;-60
2021/10/10 11:59:09;;;;;;;8.83;7.50;;;;;;;;;;5059327;28;21003;-60
2021/10/10 12:01:35;;;;;;;9.47;8.03;;;;;;;;;;5060895;28;20252;-60
2021/10/10 12:04:00;;;;;;;13.00;11.60;;;;;;;;;;5066421;28;20873;-60
2021/10/10 12:06:25;;;;;;;10.70;9.47;;;;;;;;;;5065226;28;20216;-60
2021/10/10 12:09:04;;;;;;;14.13;12.03;;;;;;;;;;5061326;28;20227;-60
2021/10/10 12:11:29;;;;;;;12.53;8.40;;;;;;;;;;5062389;28;20228;-60
2021/10/10 12:13:55;;;;;;;13.93;12.53;;;;;;;;;;5069739;28;20944;-60
2021/10/10 12:16:21;;;;;;;8.10;7.30;;;;;;;;;;5069193;28;20273;-60
2021/10/10 12:18:46;;;;;;;14.20;8.10;;;;;;;;;;5063407;28;20523;-60
2021/10/10 12:21:28;;;;;;;10.20;7.20;;;;;;;;;;5063514;28;20228;-59
2021/10/10 12:24:14;;;;;;;11.10;9.33;;;;;;;;;;5054141;28;20357;-62
2021/10/10 12:26:51;;;;;;;8.70;7.53;;;;;;;;;;5063098;28;20454;-60
2021/10/10 12:29:19;;;;;;;17.83;16.00;;;;;;;;;;5063157;28;20474;-61
2021/10/10 12:31:45;;;;;;;9.60;8.00;;;;;;;;;;5050737;28;20482;-62
2021/10/10 12:34:10;;;;;;;10.43;7.07;;;;;;;;;;5062264;28;20455;-62
2021/10/10 12:36:42;;;;;;;11.07;8.47;;;;;;;;;;5069126;28;20649;-63
2021/10/10 12:39:07;;;;;;;10.30;7.13;;;;;;;;;;5061613;28;20275;-63
2021/10/10 12:41:33;;;;;;;10.47;9.37;;;;;;;;;;5067970;28;20514;-62
2021/10/10 12:44:03;;;;;;;14.50;13.00;;;;;;;;;;5069376;28;20239;-62
2021/10/10 12:46:48;;;;;;;10.50;9.20;;;;;;;;;;5065396;28;20235;-63
2021/10/10 12:49:13;;;;;;;10.23;8.30;;;;;;;;;;5062008;28;20538;-63
2021/10/10 12:51:47;;;;;;;8.57;7.40;;;;;;;;;;5065046;28;20994;-63
2021/10/10 12:54:17;;;;;;;9.93;8.53;;;;;;;;;;5069222;28;20224;-63
2021/10/10 12:57:05;;;;;;;9.30;8.30;;;;;;;;;;5069468;28;20504;-64
2021/10/10 12:59:32;;;;;;;22.83;20.33;;;;;;;;;;5054215;28;20546;-63
2021/10/10 13:01:58;;;;;;;24.10;20.60;;;;;;;;;;5062455;28;20483;-63
2021/10/10 13:04:23;;;;;;;13.10;11.77;;;;;;;;;;5066991;28;20490;-63
2021/10/10 13:06:50;;;;;;;20.13;17.17;;;;;;;;;;5069122;28;20240;-63
2021/10/10 13:09:16;;;;;;;24.27;20.40;;;;;;;;;;5065366;28;20228;-62
2021/10/10 13:11:43;;;;;;;13.80;11.63;;;;;;;;;;5061573;28;20801;-63
2021/10/10 13:14:09;;;;;;;11.87;10.70;;;;;;;;;;5066514;28;20467;-63
2021/10/10 13:16:35;;;;;;;10.20;9.10;;;;;;;;;;5068918;28;20482;-63
2021/10/10 13:19:00;;;;;;;10.00;8.70;;;;;;;;;;5064820;28;20860;-64
2021/10/10 13:21:26;;;;;;;10.00;7.23;;;;;;;;;;5061435;28;20228;-63
2021/10/10 13:23:51;;;;;;;10.27;8.47;;;;;;;;;;5066169;28;20270;-63
2021/10/10 13:26:17;;;;;;;25.97;23.30;;;;;;;;;;5069049;28;20462;-63
2021/10/10 13:28:42;;;;;;;12.13;10.60;;;;;;;;;;5064755;28;20235;-63
2021/10/10 13:31:09;;;;;;;10.90;9.10;;;;;;;;;;5072045;28;20664;-63
2021/10/10 13:33:36;;;;;;;18.83;16.83;;;;;;;;;;5064501;28;20232;-63
2021/10/10 13:36:04;;;;;;;16.20;12.77;;;;;;;;;;5062089;28;20790;-63
2021/10/10 13:38:30;;;;;;;11.43;7.90;;;;;;;;;;5065546;28;20525;-64
2021/10/10 13:40:56;;;;;;;12.10;10.80;;;;;;;;;;5068341;28;20829;-62
2021/10/10 13:43:22;;;;;;;13.53;9.97;;;;;;;;;;5065174;28;20466;-63
2021/10/10 13:48:22;;;;;;;9.20;7.07;;;;;;;;;;5063667;28;20463;-63
2021/10/10 13:50:48;;;;;;;8.93;7.10;;;;;;;;;;5067829;28;20468;-62
2021/10/10 13:53:13;;;;;;;11.00;9.57;;;;;;;;;;5065741;28;20524;-62
2021/10/10 13:55:38;;;;;;;9.00;7.20;;;;;;;;;;5060932;28;20224;-63
2021/10/10 13:58:04;;;;;;;9.70;8.70;;;;;;;;;;5064810;28;20589;-62
2021/10/10 14:00:29;;;;;;;10.27;6.97;;;;;;;;;;5068295;28;20225;-63
2021/10/10 14:02:55;;;;;;;19.37;14.50;;;;;;;;;;5064535;28;20299;-62
2021/10/10 14:05:20;;;;;;;8.73;7.93;;;;;;;;;;5061450;28;20224;-63
2021/10/10 14:07:45;;;;;;;22.43;18.40;;;;;;;;;;5063847;28;20270;-62
2021/10/10 14:10:10;;;;;;;14.83;12.83;;;;;;;;;;5067729;28;20356;-63
2021/10/10 14:12:36;;;;;;;31.20;25.73;;;;;;;;;;5063767;28;20224;-62
2021/10/10 14:15:01;;;;;;;9.07;8.00;;;;;;;;;;5059843;28;20217;-63
2021/10/10 14:17:27;;;;;;;16.33;14.03;;;;;;;;;;5065491;28;20641;-62
2021/10/10 14:19:54;;;;;;;12.33;9.73;;;;;;;;;;5067415;28;20232;-63
2021/10/10 14:22:21;;;;;;;9.43;8.47;;;;;;;;;;5064078;28;20459;-62
2021/10/10 14:24:47;;;;;;;9.03;8.10;;;;;;;;;;5060476;28;20486;-63
2021/10/10 14:27:12;;;;;;;19.13;14.90;;;;;;;;;;5065442;28;20463;-63
2021/10/10 14:29:37;;;;;;;10.30;9.33;;;;;;;;;;5062659;28;20304;-62
2021/10/10 14:32:03;;;;;;;9.70;8.30;;;;;;;;;;5054046;28;20235;-63